createdAt,value
2017-12-01T00:01:15.951Z,11.87
2017-12-01T00:03:42.846Z,10.60
2017-12-01T00:06:09.667Z,10.57
2017-12-01T00:08:36.627Z,10.27
2017-12-01T00:11:03.536Z,10.60
2017-12-01T00:13:30.405Z,9.90
2017-12-01T00:15:57.240Z,9.00
2017-12-01T00:18:24.160Z,8.90
2017-12-01T00:20:51.101Z,8.43
2017-12-01T00:23:17.972Z,7.33
2017-12-01T00:25:44.968Z,8.47
2017-12-01T00:28:11.987Z,8.40
2017-12-01T00:30:38.859Z,9.00
2017-12-01T00:33:05.745Z,9.07
2017-12-01T01:37:45.396Z,7.37
2017-12-01T01:51:25.967Z,8.27
2017-12-01T03:06:46.183Z,10.60
2017-12-01T03:20:41.053Z,10.70
2017-12-01T03:23:08.005Z,11.23
2017-12-01T04:04:51.329Z,11.67
2017-12-01T04:07:18.196Z,11.03
2017-12-01T04:09:45.059Z,11.30
2017-12-01T04:12:11.992Z,10.87
2017-12-01T04:22:55.606Z,11.67
2017-12-01T06:56:50.475Z,11.67
2017-12-01T07:10:55.072Z,12.50
2017-12-01T07:13:22.154Z,13.63
2017-12-01T07:15:49.045Z,13.50
2017-12-01T07:18:15.927Z,13.57
2017-12-01T07:20:42.803Z,12.70
2017-12-01T07:23:09.682Z,12.60
2017-12-01T07:25:36.576Z,12.37
2017-12-01T07:28:03.464Z,14.27
2017-12-01T07:30:30.317Z,14.30
2017-12-01T07:32:57.200Z,14.40
2017-12-01T07:35:24.131Z,14.40
2017-12-01T07:37:51.052Z,14.17
2017-12-01T07:40:18.058Z,13.60
2017-12-01T07:48:58.157Z,12.87
2017-12-01T07:51:25.125Z,13.60
2017-12-01T07:53:52.016Z,13.37
2017-12-01T07:56:18.877Z,12.50
2017-12-01T07:58:45.787Z,12.53
2017-12-01T08:01:12.671Z,13.73
2017-12-01T08:03:39.581Z,13.13
2017-12-01T08:06:06.451Z,13.60
2017-12-01T08:08:33.296Z,11.77
2017-12-01T08:11:00.165Z,11.40
2017-12-01T08:13:27.023Z,11.47
2017-12-01T08:15:59.766Z,11.20
2017-12-01T08:18:32.929Z,12.17
2017-12-01T08:21:00.690Z,11.93
2017-12-01T08:23:33.370Z,11.47
2017-12-01T08:26:00.238Z,11.60
2017-12-01T08:28:27.106Z,11.27
2017-12-01T08:30:53.964Z,11.20
2017-12-01T08:33:20.784Z,9.77
2017-12-01T08:35:47.715Z,11.50
2017-12-01T08:38:14.599Z,10.30
2017-12-01T08:40:41.499Z,10.80
2017-12-01T08:43:08.397Z,9.83
2017-12-01T08:45:35.356Z,10.93
2017-12-01T08:48:02.223Z,10.40
2017-12-01T08:50:29.105Z,10.10
2017-12-01T08:52:56.108Z,9.57
2017-12-01T08:55:22.990Z,9.90
2017-12-01T08:57:49.843Z,10.30
2017-12-01T09:00:16.719Z,13.63
2017-12-01T09:02:43.633Z,13.83
2017-12-01T09:05:10.505Z,14.37
2017-12-01T09:07:37.622Z,14.00
2017-12-01T09:10:04.471Z,13.47
2017-12-01T09:12:31.296Z,14.67
2017-12-01T09:14:58.187Z,14.87
2017-12-01T09:17:24.988Z,13.30
2017-12-01T09:19:51.886Z,12.90
2017-12-01T09:22:18.764Z,11.80
2017-12-01T09:24:45.653Z,11.10
2017-12-01T09:27:12.554Z,11.70
2017-12-01T09:29:39.410Z,11.90
2017-12-01T09:32:06.400Z,11.93
2017-12-01T09:34:33.666Z,10.47
2017-12-01T09:37:00.575Z,10.80
2017-12-01T09:39:27.420Z,12.30
2017-12-01T09:41:54.274Z,12.23
2017-12-01T09:44:21.103Z,10.47
2017-12-01T09:46:47.977Z,10.90
2017-12-01T09:49:14.887Z,11.30
2017-12-01T09:51:41.760Z,10.77
2017-12-01T09:54:08.619Z,12.87
2017-12-01T09:56:35.575Z,12.40
2017-12-01T09:59:02.441Z,13.17
2017-12-01T10:01:29.388Z,12.17
2017-12-01T10:03:56.371Z,12.40
2017-12-01T10:06:23.236Z,12.40
2017-12-01T10:08:50.090Z,14.10
2017-12-01T10:11:17.026Z,11.97
2017-12-01T10:13:43.884Z,11.77
2017-12-01T10:16:10.701Z,11.17
2017-12-01T10:18:37.570Z,11.10
2017-12-01T10:21:04.398Z,11.20
2017-12-01T10:23:31.253Z,12.00
2017-12-01T10:25:58.101Z,11.13
2017-12-01T10:28:24.970Z,11.87
2017-12-01T10:30:51.823Z,12.03
2017-12-01T10:33:18.677Z,11.40
2017-12-01T10:35:45.519Z,10.33
2017-12-01T10:38:12.389Z,10.80
2017-12-01T10:40:39.219Z,11.70
2017-12-01T10:43:06.171Z,10.60
2017-12-01T10:45:33.048Z,11.30
2017-12-01T10:47:59.920Z,9.70
2017-12-01T10:50:26.693Z,9.70
2017-12-01T10:52:53.555Z,11.00
2017-12-01T10:55:20.440Z,10.33
2017-12-01T10:57:47.252Z,10.20
2017-12-01T11:00:14.160Z,10.33
2017-12-01T11:02:41.055Z,10.50
2017-12-01T11:05:07.939Z,9.97
2017-12-01T11:07:34.785Z,10.40
2017-12-01T11:10:01.643Z,14.57
2017-12-01T11:12:28.604Z,13.80
2017-12-01T11:14:55.455Z,14.30
2017-12-01T11:17:22.281Z,13.83
2017-12-01T11:19:49.185Z,15.10
2017-12-01T11:22:16.039Z,13.37
2017-12-01T11:24:42.916Z,13.13
2017-12-01T11:27:09.750Z,12.57
2017-12-01T11:29:36.662Z,12.43
2017-12-01T11:32:03.521Z,11.73
2017-12-01T11:34:30.370Z,12.20
2017-12-01T11:36:57.314Z,11.50
2017-12-01T11:39:24.175Z,10.80
2017-12-01T11:41:51.075Z,11.93
2017-12-01T11:44:17.917Z,10.00
2017-12-01T11:46:44.826Z,11.97
2017-12-01T11:49:11.630Z,11.40
2017-12-01T11:51:38.473Z,11.27
2017-12-01T11:54:05.350Z,10.70
2017-12-01T11:56:32.209Z,9.13
2017-12-01T11:58:59.013Z,8.67
2017-12-01T12:01:25.864Z,9.17
2017-12-01T12:03:52.686Z,8.73
2017-12-01T12:06:19.503Z,8.63
2017-12-01T12:08:46.336Z,7.50
2017-12-01T12:11:13.217Z,6.30
2017-12-01T12:13:40.065Z,6.10
2017-12-01T12:16:06.910Z,6.07
2017-12-01T12:18:33.858Z,5.70
2017-12-01T12:21:00.730Z,5.37
2017-12-01T12:23:27.578Z,5.20
2017-12-01T12:25:54.502Z,5.40
2017-12-01T12:28:21.327Z,6.00
2017-12-01T12:30:48.166Z,6.63
2017-12-01T12:33:14.898Z,5.93
2017-12-01T12:35:41.773Z,5.40
2017-12-01T12:38:08.700Z,5.77
2017-12-01T12:40:35.512Z,4.83
2017-12-01T12:43:02.361Z,4.93
2017-12-01T12:45:29.171Z,4.83
2017-12-01T12:47:56.007Z,5.23
2017-12-01T12:50:22.884Z,4.40
2017-12-01T12:52:49.732Z,3.80
2017-12-01T12:55:16.720Z,4.63
2017-12-01T12:57:43.547Z,3.73
2017-12-01T13:00:10.391Z,3.93
2017-12-01T13:02:37.230Z,4.50
2017-12-01T13:05:04.055Z,4.60
2017-12-01T13:07:30.894Z,3.70
2017-12-01T13:09:57.734Z,3.80
2017-12-01T13:12:25.342Z,3.77
2017-12-01T13:14:52.145Z,3.90
2017-12-01T13:17:18.970Z,3.70
2017-12-01T13:19:45.845Z,4.23
2017-12-01T13:22:12.800Z,4.87
2017-12-01T13:24:39.604Z,5.77
2017-12-01T13:27:06.532Z,6.30
2017-12-01T13:29:33.380Z,7.27
2017-12-01T13:32:00.163Z,7.07
2017-12-01T13:34:26.992Z,7.80
2017-12-01T13:36:53.786Z,7.30
2017-12-01T13:39:20.654Z,8.20
2017-12-01T13:41:47.413Z,8.67
2017-12-01T13:44:14.230Z,7.40
2017-12-01T13:46:41.029Z,6.10
2017-12-01T13:49:07.783Z,6.70
2017-12-01T13:51:34.554Z,6.00
2017-12-01T13:54:01.298Z,7.10
2017-12-01T13:56:28.078Z,6.83
2017-12-01T13:58:54.943Z,7.23
2017-12-01T14:01:21.663Z,7.00
2017-12-01T14:03:48.463Z,6.70
2017-12-01T14:06:15.246Z,7.03
2017-12-01T14:08:42.062Z,6.13
2017-12-01T14:11:08.833Z,6.80
2017-12-01T14:13:35.620Z,5.10
2017-12-01T14:16:02.439Z,6.63
2017-12-01T14:18:29.218Z,5.87
2017-12-01T14:20:55.991Z,6.40
2017-12-01T14:23:22.798Z,6.50
2017-12-01T14:25:49.567Z,6.87
2017-12-01T14:28:16.361Z,7.80
2017-12-01T14:30:43.098Z,8.07
2017-12-01T14:33:09.852Z,5.60
2017-12-01T14:35:36.660Z,8.13
2017-12-01T14:38:03.401Z,8.23
2017-12-01T14:40:30.190Z,8.80
2017-12-01T14:42:57.017Z,8.63
2017-12-01T14:45:23.786Z,9.67
2017-12-01T14:47:50.576Z,9.50
2017-12-01T14:50:17.330Z,8.60
2017-12-01T14:52:44.139Z,8.90
2017-12-01T14:55:10.898Z,9.67
2017-12-01T14:57:37.700Z,10.20
2017-12-01T15:00:04.585Z,9.63
2017-12-01T15:02:31.488Z,10.17
2017-12-01T15:04:58.288Z,9.57
2017-12-01T15:07:25.105Z,11.03
2017-12-01T15:09:51.900Z,10.70
2017-12-01T15:12:18.641Z,9.50
2017-12-01T15:14:45.543Z,10.53
2017-12-01T15:17:12.392Z,10.67
2017-12-01T15:19:39.246Z,11.17
2017-12-01T15:22:06.047Z,11.43
2017-12-01T15:24:32.865Z,12.13
2017-12-01T15:26:59.675Z,10.50
2017-12-01T15:29:26.492Z,12.23
2017-12-01T15:31:53.496Z,12.70
2017-12-01T15:34:29.168Z,12.30
2017-12-01T15:36:56.116Z,12.57
2017-12-01T15:39:23.065Z,12.50
2017-12-01T17:01:02.828Z,16.30
2017-12-01T17:14:31.402Z,17.03
2017-12-01T17:16:58.237Z,17.30
2017-12-01T17:19:25.156Z,18.27
2017-12-01T17:21:51.968Z,16.23
2017-12-01T17:24:18.761Z,16.37
2017-12-01T17:26:45.540Z,15.83
2017-12-01T17:29:12.346Z,15.40
2017-12-01T17:31:39.220Z,15.67
2017-12-01T17:34:06.053Z,16.43
2017-12-01T17:36:32.843Z,15.90
2017-12-01T17:38:59.615Z,16.33
2017-12-01T17:41:26.433Z,13.90
2017-12-01T17:43:53.518Z,13.53
2017-12-01T17:46:20.736Z,15.87
2017-12-01T17:48:48.639Z,16.10
2017-12-01T17:51:15.689Z,15.77
2017-12-01T17:59:27.417Z,16.03
2017-12-01T18:01:55.863Z,16.13
2017-12-01T19:03:25.935Z,18.77
2017-12-01T19:05:53.188Z,19.13
